Time;durP1;ratioP1;P1;durP2;ratioP2;P2;SDS_P1;SDS_P2;PMS_P1;PMS_P2;Temp;Humidity;BMP_temperature;BMP_pressure;BME280_temperature;BME280_humidity;BME280_pressure;Samples;Min_cycle;Max_cycle;Signal;HPM_P1;HPM_P2
2022/08/29 00:02:10;;;;;;;3.17;0.40;;;13.50;99.90;;;;;;5006411;28;20025;-78
2022/08/29 00:04:35;;;;;;;0.80;0.30;;;13.50;99.90;;;;;;5040199;28;20033;-79
2022/08/29 00:07:01;;;;;;;1.05;0.30;;;13.40;99.90;;;;;;5024640;28;20033;-78
2022/08/29 00:09:26;;;;;;;1.17;0.30;;;13.40;99.90;;;;;;5028314;28;21128;-76
2022/08/29 00:11:52;;;;;;;2.55;0.40;;;13.40;99.90;;;;;;5039753;28;20026;-77
2022/08/29 00:14:18;;;;;;;2.20;0.40;;;13.30;99.90;;;;;;5011428;28;20025;-79
2022/08/29 00:16:43;;;;;;;1.00;0.30;;;13.20;99.90;;;;;;5025293;28;20026;-77
2022/08/29 00:19:09;;;;;;;1.80;0.38;;;13.20;99.90;;;;;;5030058;28;20017;-77
2022/08/29 00:21:35;;;;;;;1.00;0.30;;;13.20;99.90;;;;;;5025043;28;20112;-79
2022/08/29 00:24:01;;;;;;;1.05;0.30;;;13.20;99.90;;;;;;5039067;28;20108;-78
2022/08/29 00:26:26;;;;;;;1.15;0.30;;;13.10;99.90;;;;;;5006103;28;20508;-78
2022/08/29 00:28:52;;;;;;;1.45;0.40;;;13.00;99.90;;;;;;5025035;28;20048;-79
2022/08/29 00:31:18;;;;;;;2.50;0.30;;;12.90;99.90;;;;;;5024633;28;20041;-78
2022/08/29 00:33:44;;;;;;;2.10;0.30;;;12.90;99.90;;;;;;5011509;28;20025;-78
2022/08/29 00:36:10;;;;;;;3.22;1.13;;;12.90;99.90;;;;;;5022568;28;20095;-78
2022/08/29 00:38:36;;;;;;;1.75;0.30;;;12.90;99.90;;;;;;4989719;28;20030;-78
2022/08/29 00:41:02;;;;;;;1.52;0.30;;;12.80;99.90;;;;;;5006677;28;20054;-78
2022/08/29 00:43:32;;;;;;;1.45;0.40;;;12.80;99.90;;;;;;5024335;28;20434;-78
2022/08/29 00:46:16;;;;;;;1.27;0.40;;;12.80;99.90;;;;;;5009614;28;20034;-78
2022/08/29 00:48:48;;;;;;;2.17;0.50;;;12.70;99.90;;;;;;4989588;28;20045;-79
2022/08/29 00:51:17;;;;;;;2.08;0.30;;;12.70;99.90;;;;;;5025077;28;20029;-80
2022/08/29 00:53:46;;;;;;;2.13;0.38;;;12.60;99.90;;;;;;5038010;28;20029;-78
2022/08/29 00:56:15;;;;;;;1.45;0.43;;;12.60;99.90;;;;;;5040400;28;20446;-79
2022/08/29 00:58:46;;;;;;;1.92;0.30;;;12.60;99.90;;;;;;5023229;28;20033;-79
2022/08/29 01:01:12;;;;;;;1.27;0.35;;;12.60;99.90;;;;;;5021643;28;20037;-80
2022/08/29 01:03:40;;;;;;;1.73;0.40;;;12.50;99.90;;;;;;5039867;28;20037;-79
2022/08/29 01:06:07;;;;;;;1.48;0.40;;;12.40;99.90;;;;;;5032804;28;20059;-78
2022/08/29 01:08:34;;;;;;;1.65;0.32;;;12.40;99.90;;;;;;5028669;28;20323;-78
2022/08/29 01:13:48;;;;;;;1.30;0.38;;;12.40;99.90;;;;;;5003889;28;20025;-77
2022/08/29 01:16:15;;;;;;;3.42;0.50;;;12.40;99.90;;;;;;5012439;28;20170;-77
2022/08/29 01:18:44;;;;;;;1.30;0.30;;;12.30;99.90;;;;;;5010473;28;20037;-79
2022/08/29 01:21:22;;;;;;;0.80;0.30;;;12.20;99.90;;;;;;5024349;28;20377;-79
2022/08/29 01:24:07;;;;;;;1.27;0.40;;;12.20;99.90;;;;;;5020004;28;20038;-79
2022/08/29 01:26:33;;;;;;;0.98;0.40;;;12.20;99.90;;;;;;5022619;28;20045;-78
2022/08/29 01:28:58;;;;;;;1.10;0.40;;;12.20;99.90;;;;;;5026957;28;20497;-78
2022/08/29 01:31:35;;;;;;;1.13;0.40;;;12.10;99.90;;;;;;5016035;28;20034;-78
2022/08/29 01:34:00;;;;;;;1.70;0.40;;;12.10;99.90;;;;;;5010029;28;20122;-79
2022/08/29 01:36:37;;;;;;;1.20;0.40;;;12.10;99.90;;;;;;5022177;28;20109;-77
2022/08/29 01:39:04;;;;;;;1.88;0.47;;;12.10;99.90;;;;;;4989555;28;20422;-78
2022/08/29 01:41:31;;;;;;;1.58;0.40;;;12.10;99.90;;;;;;5038730;28;20063;-79
2022/08/29 01:43:56;;;;;;;1.98;0.40;;;12.00;99.90;;;;;;5020697;28;20039;-78
2022/08/29 01:46:29;;;;;;;2.85;0.40;;;12.00;99.90;;;;;;5028497;28;20041;-79
2022/08/29 01:48:56;;;;;;;1.58;0.40;;;12.00;99.90;;;;;;5029016;28;20587;-77
2022/08/29 01:51:23;;;;;;;1.00;0.32;;;12.10;99.90;;;;;;5032244;28;20064;-77
2022/08/29 01:53:50;;;;;;;2.10;0.40;;;12.00;99.90;;;;;;5030282;28;20385;-79
2022/08/29 01:56:23;;;;;;;4.80;0.65;;;11.80;99.90;;;;;;5028330;28;20029;-79
2022/08/29 01:58:51;;;;;;;1.15;0.43;;;11.80;99.90;;;;;;5029617;28;20061;-79
2022/08/29 02:01:23;;;;;;;1.55;0.40;;;11.80;99.90;;;;;;5015500;28;20033;-77
2022/08/29 02:03:49;;;;;;;2.50;0.40;;;11.90;99.90;;;;;;5027796;28;20075;-78
2022/08/29 02:06:15;;;;;;;1.80;0.45;;;11.90;99.90;;;;;;5020374;28;20104;-77
2022/08/29 02:08:42;;;;;;;2.25;0.50;;;11.90;99.90;;;;;;5023978;28;20030;-79
2022/08/29 02:11:10;;;;;;;2.05;0.40;;;11.90;99.90;;;;;;5029614;28;20060;-78
2022/08/29 02:13:44;;;;;;;1.77;0.40;;;11.90;99.90;;;;;;5045647;28;20044;-78
2022/08/29 02:16:11;;;;;;;1.73;0.40;;;12.00;99.90;;;;;;5028830;28;20036;-78
2022/08/29 02:18:37;;;;;;;1.58;0.40;;;11.80;99.90;;;;;;5030827;28;20056;-78
2022/08/29 02:21:03;;;;;;;2.42;0.47;;;11.80;99.90;;;;;;4993788;28;20472;-78
2022/08/29 02:23:30;;;;;;;2.13;0.40;;;11.90;99.90;;;;;;5009078;28;20072;-79
2022/08/29 02:25:56;;;;;;;1.33;0.30;;;11.90;99.90;;;;;;5045130;28;20512;-79
2022/08/29 02:28:21;;;;;;;2.85;0.60;;;11.80;99.90;;;;;;5023718;28;20040;-77
2022/08/29 02:30:53;;;;;;;2.28;0.65;;;11.70;99.90;;;;;;5045178;28;20021;-79
2022/08/29 02:33:20;;;;;;;2.17;0.40;;;11.70;99.90;;;;;;5029243;28;20033;-78
2022/08/29 02:35:47;;;;;;;2.17;0.40;;;11.90;99.90;;;;;;5013292;28;20424;-77
2022/08/29 02:38:14;;;;;;;1.90;0.35;;;11.80;99.90;;;;;;5027471;28;20029;-79
2022/08/29 02:40:41;;;;;;;2.45;0.30;;;11.80;99.90;;;;;;5028364;28;20590;-79
2022/08/29 02:43:07;;;;;;;1.65;0.40;;;11.70;99.90;;;;;;5014985;28;20030;-78
2022/08/29 02:45:36;;;;;;;2.83;0.43;;;11.70;99.90;;;;;;5025534;28;20116;-79
2022/08/29 02:48:02;;;;;;;1.58;0.55;;;11.70;99.90;;;;;;5013161;28;20068;-80
2022/08/29 02:50:28;;;;;;;0.85;0.38;;;11.70;99.90;;;;;;5011251;28;20118;-79
2022/08/29 02:52:54;;;;;;;1.65;0.40;;;11.70;99.90;;;;;;5029326;28;20501;-79
2022/08/29 02:55:21;;;;;;;1.27;0.40;;;11.60;99.90;;;;;;5011336;28;20112;-78
2022/08/29 02:57:47;;;;;;;1.35;0.50;;;11.60;99.90;;;;;;5029063;28;20034;-78
2022/08/29 03:00:16;;;;;;;1.20;0.38;;;11.40;99.90;;;;;;5027071;28;20029;-79
2022/08/29 03:02:43;;;;;;;1.60;0.43;;;11.50;99.90;;;;;;5026366;28;20108;-78
2022/08/29 03:05:09;;;;;;;1.15;0.40;;;11.50;99.90;;;;;;4998309;28;20172;-79
2022/08/29 03:07:35;;;;;;;1.10;0.40;;;11.40;99.90;;;;;;5032263;28;20128;-79
2022/08/29 03:10:01;;;;;;;1.40;0.40;;;11.40;99.90;;;;;;5020644;28;20026;-80
2022/08/29 03:12:27;;;;;;;1.38;0.40;;;11.40;99.90;;;;;;5037510;28;20037;-76
2022/08/29 03:14:53;;;;;;;1.35;0.47;;;11.30;99.90;;;;;;5007808;28;20175;-80
2022/08/29 03:17:18;;;;;;;1.55;0.40;;;11.30;99.90;;;;;;5029640;28;20112;-79
2022/08/29 03:19:44;;;;;;;1.63;0.50;;;11.30;99.90;;;;;;5029643;28;20032;-79
2022/08/29 03:22:10;;;;;;;1.75;0.50;;;11.30;99.90;;;;;;5023763;28;20034;-80
2022/08/29 03:24:36;;;;;;;2.40;0.50;;;11.20;99.90;;;;;;5036541;28;20030;-80
2022/08/29 03:27:02;;;;;;;1.23;0.40;;;11.10;99.90;;;;;;5024362;28;20041;-78
2022/08/29 03:29:28;;;;;;;1.33;0.50;;;11.10;99.90;;;;;;5027096;28;20139;-77
2022/08/29 03:31:57;;;;;;;3.13;0.60;;;11.20;99.90;;;;;;5007974;28;20491;-79
2022/08/29 03:34:24;;;;;;;1.85;0.50;;;11.10;99.90;;;;;;5011504;28;20057;-80
2022/08/29 03:36:50;;;;;;;1.20;0.50;;;11.00;99.90;;;;;;5024981;28;20029;-80
2022/08/29 03:39:16;;;;;;;1.77;0.55;;;11.00;99.90;;;;;;5025921;28;20026;-79
2022/08/29 03:41:41;;;;;;;1.27;0.40;;;11.10;99.90;;;;;;5025423;28;20045;-79
2022/08/29 03:44:07;;;;;;;1.88;0.50;;;11.20;99.90;;;;;;5026892;28;20576;-79
2022/08/29 03:46:35;;;;;;;1.77;0.50;;;11.10;99.90;;;;;;4995862;28;20382;-81
2022/08/29 03:49:01;;;;;;;3.63;0.47;;;11.10;99.90;;;;;;5030306;28;20017;-80
2022/08/29 03:51:27;;;;;;;1.65;0.57;;;11.10;99.90;;;;;;4996756;28;20038;-81
2022/08/29 03:53:53;;;;;;;1.52;0.47;;;11.10;99.90;;;;;;5029789;28;20113;-80
2022/08/29 03:56:19;;;;;;;2.55;0.50;;;11.00;99.90;;;;;;5040969;28;20493;-77
2022/08/29 03:58:46;;;;;;;2.00;0.60;;;10.90;99.90;;;;;;5022436;28;20104;-79
2022/08/29 04:01:12;;;;;;;2.03;0.50;;;11.00;99.90;;;;;;5028479;28;20386;-78
2022/08/29 04:03:38;;;;;;;1.33;0.45;;;11.10;99.90;;;;;;4989919;28;20032;-79
2022/08/29 04:06:04;;;;;;;2.08;0.52;;;11.00;99.90;;;;;;5008471;28;20041;-77
2022/08/29 04:08:30;;;;;;;1.10;0.45;;;11.10;99.90;;;;;;5027407;28;20029;-78
2022/08/29 04:10:55;;;;;;;1.58;0.40;;;11.10;99.90;;;;;;5004853;28;20051;-80
2022/08/29 04:13:21;;;;;;;1.60;0.50;;;11.20;99.90;;;;;;5041677;28;20021;-82
2022/08/29 04:15:47;;;;;;;1.30;0.50;;;11.20;99.90;;;;;;5032869;28;20068;-79
2022/08/29 04:18:12;;;;;;;3.63;0.43;;;11.30;99.90;;;;;;5016896;28;20125;-77
2022/08/29 04:20:43;;;;;;;1.02;0.40;;;11.40;99.90;;;;;;5025341;28;20024;-79
2022/08/29 04:23:11;;;;;;;1.02;0.40;;;11.30;99.90;;;;;;5005256;28;20542;-79
2022/08/29 04:25:38;;;;;;;1.77;0.40;;;11.40;99.90;;;;;;5012580;28;20029;-79
2022/08/29 04:28:06;;;;;;;1.60;0.60;;;11.50;99.90;;;;;;5040088;28;20052;-80
2022/08/29 04:30:32;;;;;;;1.27;0.40;;;11.50;99.90;;;;;;5025326;28;20022;-80
2022/08/29 04:32:58;;;;;;;1.30;0.50;;;11.60;99.90;;;;;;5040732;28;20053;-78
2022/08/29 04:35:24;;;;;;;1.45;0.40;;;11.60;99.90;;;;;;5023697;28;20087;-78
2022/08/29 04:37:50;;;;;;;1.27;0.40;;;11.60;99.90;;;;;;5022095;28;20064;-79
2022/08/29 04:40:18;;;;;;;1.67;0.40;;;11.60;99.90;;;;;;5013802;28;20103;-79
2022/08/29 04:42:48;;;;;;;1.17;0.40;;;11.80;99.90;;;;;;5011515;28;20061;-79
2022/08/29 04:45:16;;;;;;;1.48;0.50;;;11.90;99.90;;;;;;5023584;28;20079;-79
2022/08/29 04:47:44;;;;;;;1.65;0.60;;;12.00;99.90;;;;;;5026666;28;20486;-76
2022/08/29 04:50:13;;;;;;;1.50;0.50;;;12.00;99.90;;;;;;5040444;28;20022;-76
2022/08/29 04:52:42;;;;;;;1.83;0.50;;;12.00;99.90;;;;;;5002644;28;20458;-76
2022/08/29 04:55:11;;;;;;;2.28;0.50;;;11.90;99.90;;;;;;5020877;28;20026;-75
2022/08/29 04:57:38;;;;;;;2.08;0.50;;;12.10;99.90;;;;;;4988111;28;20049;-77
2022/08/29 05:00:11;;;;;;;1.27;0.50;;;12.10;99.90;;;;;;5022183;28;20078;-76
2022/08/29 05:02:37;;;;;;;0.85;0.40;;;12.10;99.90;;;;;;4991965;28;20060;-78
2022/08/29 05:05:03;;;;;;;1.00;0.40;;;12.10;99.90;;;;;;5022870;28;20030;-76
2022/08/29 05:07:29;;;;;;;2.05;0.47;;;12.30;99.90;;;;;;5008790;28;20038;-76
2022/08/29 05:09:58;;;;;;;1.55;0.40;;;12.30;99.90;;;;;;5013540;28;20470;-76
2022/08/29 05:12:24;;;;;;;3.33;0.50;;;12.20;99.90;;;;;;5036878;28;20040;-75
2022/08/29 05:14:51;;;;;;;1.73;0.60;;;12.30;99.90;;;;;;5022395;28;20092;-77
2022/08/29 05:17:17;;;;;;;3.05;0.47;;;12.30;99.90;;;;;;5024280;28;20040;-75
2022/08/29 05:19:43;;;;;;;2.42;0.57;;;12.30;99.90;;;;;;5023127;28;20029;-76
2022/08/29 05:22:16;;;;;;;2.45;0.52;;;12.30;99.90;;;;;;5021765;28;20056;-77
2022/08/29 05:24:43;;;;;;;2.65;0.50;;;12.30;99.90;;;;;;5018984;28;20030;-76
2022/08/29 05:27:18;;;;;;;1.55;0.50;;;12.50;99.90;;;;;;5013611;28;20123;-75
2022/08/29 05:29:46;;;;;;;1.50;0.60;;;12.60;99.90;;;;;;5022830;28;20036;-76
2022/08/29 05:32:13;;;;;;;3.20;0.60;;;12.60;99.90;;;;;;5037534;28;20033;-75
2022/08/29 05:34:40;;;;;;;2.55;0.60;;;12.50;99.90;;;;;;5006830;28;20036;-76
2022/08/29 05:37:09;;;;;;;1.58;0.50;;;12.60;99.90;;;;;;4992527;28;20377;-77
2022/08/29 05:39:37;;;;;;;2.10;0.50;;;12.50;99.90;;;;;;5008296;28;20175;-76
2022/08/29 05:42:04;;;;;;;1.52;0.47;;;12.50;99.90;;;;;;5021020;28;20115;-75
2022/08/29 05:44:31;;;;;;;1.10;0.40;;;12.60;99.90;;;;;;5011515;28;20021;-78
2022/08/29 05:46:58;;;;;;;2.45;0.50;;;12.70;99.90;;;;;;4986733;28;20037;-77
2022/08/29 05:49:24;;;;;;;1.90;0.52;;;12.70;99.90;;;;;;4993505;28;20505;-76
2022/08/29 05:51:54;;;;;;;1.92;0.70;;;12.90;99.90;;;;;;5025867;28;20041;-80
2022/08/29 05:54:21;;;;;;;3.95;0.50;;;12.80;99.90;;;;;;5020786;28;20523;-76
2022/08/29 05:56:48;;;;;;;1.92;0.68;;;13.00;99.90;;;;;;5011939;28;20559;-77
2022/08/29 05:59:16;;;;;;;1.60;0.50;;;13.00;99.90;;;;;;5020324;28;20044;-76
2022/08/29 06:01:42;;;;;;;2.42;0.57;;;13.00;99.90;;;;;;5038282;28;20089;-76
2022/08/29 06:04:10;;;;;;;3.63;0.65;;;13.10;99.90;;;;;;5021208;28;20128;-76
2022/08/29 06:06:36;;;;;;;2.63;0.50;;;13.30;99.90;;;;;;5034727;28;20041;-78
2022/08/29 06:09:02;;;;;;;4.15;0.70;;;13.30;99.90;;;;;;5023799;28;20025;-75
2022/08/29 06:11:30;;;;;;;4.05;0.50;;;13.40;99.90;;;;;;5037449;28;20025;-76
2022/08/29 06:13:58;;;;;;;2.60;0.50;;;13.50;99.90;;;;;;5023744;28;20021;-77
2022/08/29 06:16:25;;;;;;;2.55;0.65;;;13.60;99.90;;;;;;5019970;28;20033;-78
2022/08/29 06:18:51;;;;;;;1.77;0.50;;;13.60;99.90;;;;;;5009811;28;20021;-77
2022/08/29 06:21:17;;;;;;;1.90;0.65;;;13.70;99.90;;;;;;5036805;28;20029;-76
2022/08/29 06:23:43;;;;;;;1.67;0.45;;;13.70;99.90;;;;;;5022743;28;20038;-79
2022/08/29 06:26:10;;;;;;;5.43;0.70;;;13.80;99.90;;;;;;5038198;28;20055;-77
2022/08/29 06:28:38;;;;;;;3.47;0.60;;;13.80;99.90;;;;;;5022199;28;20079;-78
2022/08/29 06:31:09;;;;;;;3.60;0.70;;;13.90;99.90;;;;;;5013655;28;20064;-75
2022/08/29 06:33:35;;;;;;;2.85;0.60;;;14.00;99.90;;;;;;5038754;28;20029;-76
2022/08/29 06:36:02;;;;;;;2.03;0.68;;;14.10;99.90;;;;;;5006573;28;20029;-76
2022/08/29 06:38:28;;;;;;;4.68;0.73;;;14.30;99.90;;;;;;5027707;28;20029;-76
2022/08/29 06:40:53;;;;;;;2.88;1.02;;;14.40;99.90;;;;;;5020855;28;20095;-77
2022/08/29 06:43:19;;;;;;;2.80;0.80;;;14.50;99.90;;;;;;5026795;28;20029;-76
2022/08/29 06:45:45;;;;;;;1.52;0.60;;;14.60;99.90;;;;;;5025857;28;20049;-77
2022/08/29 06:48:10;;;;;;;3.35;0.88;;;14.70;99.90;;;;;;5026825;28;20161;-75
2022/08/29 06:50:37;;;;;;;2.10;0.60;;;14.90;99.90;;;;;;5020578;28;20187;-76
2022/08/29 06:53:03;;;;;;;3.95;0.70;;;15.00;99.90;;;;;;5036495;28;20022;-77
2022/08/29 06:55:29;;;;;;;4.15;0.90;;;15.10;99.90;;;;;;5026241;28;20021;-75
2022/08/29 06:57:55;;;;;;;3.10;0.70;;;15.00;99.90;;;;;;5023684;28;20074;-75
2022/08/29 07:00:22;;;;;;;2.72;0.60;;;15.00;99.90;;;;;;5015273;28;20026;-76
2022/08/29 07:02:48;;;;;;;2.33;0.70;;;15.20;99.90;;;;;;5034358;28;20037;-76
2022/08/29 07:05:14;;;;;;;3.22;1.15;;;15.30;99.90;;;;;;4990766;28;20478;-77
2022/08/29 07:07:41;;;;;;;3.25;0.80;;;15.40;99.90;;;;;;5027065;28;20056;-75
2022/08/29 07:10:07;;;;;;;3.78;0.70;;;15.70;99.90;;;;;;5027682;28;20041;-76
2022/08/29 07:12:34;;;;;;;3.05;0.70;;;15.80;99.90;;;;;;5012604;28;20160;-75
2022/08/29 07:15:00;;;;;;;3.75;0.80;;;16.00;99.90;;;;;;5039629;28;20076;-75
2022/08/29 07:17:27;;;;;;;2.97;0.80;;;16.10;99.90;;;;;;5024039;28;20106;-76
2022/08/29 07:19:53;;;;;;;5.03;1.00;;;16.10;99.90;;;;;;5017885;28;20507;-77
2022/08/29 07:22:19;;;;;;;3.15;0.73;;;16.00;99.90;;;;;;5022306;28;20124;-75
2022/08/29 07:24:45;;;;;;;4.22;1.63;;;16.20;99.90;;;;;;5022429;28;20108;-76
2022/08/29 07:27:11;;;;;;;2.97;0.70;;;16.10;99.90;;;;;;5014413;28;20163;-75
2022/08/29 07:29:37;;;;;;;2.22;0.90;;;16.20;99.90;;;;;;5026027;28;20486;-76
2022/08/29 07:32:04;;;;;;;3.88;0.80;;;16.20;99.90;;;;;;5013477;28;20120;-76
2022/08/29 07:34:29;;;;;;;3.65;1.10;;;16.30;99.90;;;;;;5026382;28;20257;-77
2022/08/29 07:36:55;;;;;;;4.68;1.23;;;16.30;99.90;;;;;;5024505;28;20326;-76
2022/08/29 07:39:21;;;;;;;3.72;0.90;;;16.30;99.90;;;;;;5024714;28;20527;-76
2022/08/29 07:41:47;;;;;;;4.43;1.55;;;16.60;99.90;;;;;;5007030;28;20088;-76
2022/08/29 07:44:13;;;;;;;4.15;1.17;;;16.60;99.90;;;;;;5024805;28;20029;-77
2022/08/29 07:46:40;;;;;;;4.22;1.10;;;16.70;99.90;;;;;;5022787;28;20057;-76
2022/08/29 07:49:06;;;;;;;5.07;1.42;;;16.90;99.90;;;;;;5002813;28;20422;-78
2022/08/29 07:51:32;;;;;;;3.15;1.00;;;16.80;99.90;;;;;;5023809;28;20021;-76
2022/08/29 07:53:58;;;;;;;2.72;0.80;;;17.10;99.90;;;;;;5024316;28;20390;-79
2022/08/29 07:56:29;;;;;;;2.38;0.85;;;17.40;99.90;;;;;;5016822;28;20105;-76
2022/08/29 07:58:57;;;;;;;8.15;1.23;;;17.50;99.90;;;;;;5036999;28;20029;-76
2022/08/29 08:01:23;;;;;;;3.85;0.95;;;17.40;99.90;;;;;;5006245;28;20502;-77
2022/08/29 08:03:50;;;;;;;2.70;0.70;;;17.60;99.90;;;;;;5005979;28;20029;-76
2022/08/29 08:06:16;;;;;;;3.50;1.00;;;18.00;99.90;;;;;;5026539;28;20041;-77
2022/08/29 08:08:42;;;;;;;1.83;0.70;;;18.50;99.90;;;;;;5028163;28;20076;-76
2022/08/29 08:11:08;;;;;;;2.35;0.70;;;18.90;99.90;;;;;;5023125;28;20034;-77
2022/08/29 08:13:36;;;;;;;2.20;0.70;;;19.10;99.90;;;;;;5007765;28;20390;-79
2022/08/29 08:16:07;;;;;;;4.20;0.50;;;19.50;99.90;;;;;;5023082;28;20025;-77
2022/08/29 08:18:35;;;;;;;1.42;0.40;;;19.80;99.90;;;;;;5038638;28;20029;-76
2022/08/29 08:21:01;;;;;;;2.92;0.50;;;20.20;99.90;;;;;;5040328;28;20371;-76
2022/08/29 08:23:27;;;;;;;3.30;0.50;;;20.40;99.90;;;;;;5023145;28;20037;-76
2022/08/29 08:25:53;;;;;;;2.85;0.35;;;20.60;99.90;;;;;;5023869;28;20099;-76
2022/08/29 08:28:18;;;;;;;3.28;0.40;;;20.70;99.90;;;;;;5025614;28;20029;-76
2022/08/29 08:30:44;;;;;;;1.80;0.50;;;20.70;99.90;;;;;;5023944;28;20430;-78
2022/08/29 08:33:11;;;;;;;2.60;0.60;;;20.50;99.90;;;;;;5023542;28;20552;-78
2022/08/29 08:35:39;;;;;;;2.75;0.95;;;20.10;99.90;;;;;;5040874;28;20169;-76
2022/08/29 08:38:07;;;;;;;2.42;0.50;;;20.70;99.90;;;;;;5025260;28;20168;-75
2022/08/29 08:40:35;;;;;;;1.88;0.40;;;20.40;99.90;;;;;;5023075;28;20045;-77
2022/08/29 08:43:02;;;;;;;2.50;0.50;;;19.90;99.90;;;;;;5025352;28;20130;-77
2022/08/29 08:45:38;;;;;;;2.95;0.40;;;19.80;99.90;;;;;;5005839;28;20045;-76
2022/08/29 08:48:12;;;;;;;3.45;0.50;;;20.30;99.90;;;;;;5020912;28;20111;-76
2022/08/29 08:50:55;;;;;;;1.75;0.40;;;20.50;99.90;;;;;;5023879;28;20025;-77
2022/08/29 08:53:36;;;;;;;2.50;0.40;;;20.20;99.90;;;;;;5002212;28;20079;-76
2022/08/29 08:56:10;;;;;;;4.00;0.40;;;20.00;99.90;;;;;;5005837;28;20063;-76
2022/08/29 08:59:00;;;;;;;3.42;0.50;;;20.10;99.90;;;;;;5026024;28;20025;-76
2022/08/29 09:01:31;;;;;;;3.55;0.50;;;19.90;99.90;;;;;;5021746;28;20053;-75
2022/08/29 09:04:20;;;;;;;4.05;0.60;;;19.70;99.90;;;;;;5006613;28;20109;-76
2022/08/29 09:07:14;;;;;;;2.28;0.40;;;20.20;99.90;;;;;;5027940;28;20037;-77
2022/08/29 09:09:58;;;;;;;3.05;0.45;;;20.40;99.90;;;;;;5005974;28;20106;-76
2022/08/29 09:12:47;;;;;;;2.78;0.40;;;20.30;99.90;;;;;;5004709;28;20275;-76
2022/08/29 09:15:17;;;;;;;2.20;0.55;;;19.90;99.90;;;;;;5012204;28;20120;-76
2022/08/29 09:17:56;;;;;;;;;;;19.80;99.90;;;;;;5039269;28;20036;-76
2022/08/29 09:20:32;;;;;;;3.80;0.40;;;19.80;99.90;;;;;;5007514;28;19936;-76
2022/08/29 09:23:01;;;;;;;3.75;0.40;;;19.90;99.90;;;;;;5036121;28;20029;-77
2022/08/29 09:25:28;;;;;;;1.98;0.30;;;20.30;99.90;;;;;;5008227;28;20031;-77
2022/08/29 09:27:56;;;;;;;2.10;0.40;;;21.00;99.90;;;;;;5003535;28;20098;-77
2022/08/29 09:30:26;;;;;;;2.03;0.55;;;21.20;99.90;;;;;;5004626;28;20021;-76
2022/08/29 09:33:07;;;;;;;2.20;0.45;;;20.70;99.90;;;;;;5025181;28;20124;-77
2022/08/29 09:35:44;;;;;;;3.00;0.80;;;20.50;99.90;;;;;;5021784;28;20025;-76
2022/08/29 09:38:15;;;;;;;3.38;0.50;;;20.00;99.90;;;;;;5024628;28;20648;-76
2022/08/29 09:40:56;;;;;;;2.22;0.50;;;19.80;99.90;;;;;;5003943;28;20049;-76
2022/08/29 09:43:27;;;;;;;2.78;0.50;;;19.80;99.90;;;;;;5034737;28;20029;-77
2022/08/29 09:46:22;;;;;;;2.47;0.50;;;20.40;99.90;;;;;;5019648;28;20383;-80
2022/08/29 09:48:56;;;;;;;1.98;0.40;;;20.70;99.90;;;;;;5003086;28;20034;-77
2022/08/29 09:51:29;;;;;;;2.10;0.40;;;20.60;99.90;;;;;;5020567;28;20018;-77
2022/08/29 09:54:22;;;;;;;1.55;0.30;;;20.50;99.90;;;;;;5025155;28;20029;-78
2022/08/29 09:56:52;;;;;;;2.80;0.60;;;20.60;99.90;;;;;;5035569;28;20061;-79
2022/08/29 09:59:28;;;;;;;2.78;0.40;;;20.10;99.90;;;;;;5000633;28;20150;-76
2022/08/29 10:02:25;;;;;;;2.88;0.43;;;20.80;99.90;;;;;;5017502;28;20080;-77
2022/08/29 10:04:53;;;;;;;1.65;0.30;;;21.10;99.90;;;;;;5034339;28;20022;-79
2022/08/29 10:07:24;;;;;;;1.55;0.22;;;21.00;99.90;;;;;;5010402;28;21270;-76
2022/08/29 10:09:59;;;;;;;1.25;0.30;;;20.90;99.90;;;;;;5001956;28;20025;-77
2022/08/29 10:12:31;;;;;;;1.25;0.30;;;20.90;99.90;;;;;;5029635;28;20121;-76
2022/08/29 10:15:01;;;;;;;2.15;0.40;;;21.10;99.90;;;;;;5026485;28;20025;-76
2022/08/29 10:18:22;;;;;;;1.95;0.30;;;21.20;99.90;;;;;;5034107;28;20041;-77
2022/08/29 10:21:24;;;;;;;1.65;0.30;;;21.00;99.90;;;;;;5016143;28;20033;-76
2022/08/29 10:24:05;;;;;;;2.22;0.30;;;21.70;99.90;;;;;;5019889;28;20036;-77
2022/08/29 10:26:42;;;;;;;1.88;0.40;;;22.30;99.90;;;;;;5021103;28;20091;-76
2022/08/29 10:29:08;;;;;;;1.05;0.30;;;22.10;99.90;;;;;;5019016;28;20511;-76
2022/08/29 10:32:12;;;;;;;1.63;0.20;;;22.40;99.90;;;;;;5001135;28;20470;-77
2022/08/29 10:34:52;;;;;;;1.67;0.20;;;22.80;99.90;;;;;;4998782;28;20038;-80
2022/08/29 10:37:36;;;;;;;1.50;0.30;;;23.00;99.90;;;;;;4985774;28;20056;-76
2022/08/29 10:40:11;;;;;;;2.22;0.40;;;23.00;99.90;;;;;;4984673;28;20666;-77
2022/08/29 10:42:40;;;;;;;3.08;0.40;;;22.40;99.90;;;;;;5017492;28;20393;-76
2022/08/29 10:45:28;;;;;;;1.23;0.30;;;22.20;99.90;;;;;;5033116;28;20386;-76
2022/08/29 10:48:18;;;;;;;3.47;0.38;;;22.60;99.90;;;;;;5019259;28;20502;-78
2022/08/29 10:51:03;;;;;;;;;;;22.50;99.90;;;;;;5017382;28;20041;-77
2022/08/29 10:53:53;;;;;;;1.98;0.30;;;22.60;99.90;;;;;;5010415;28;19917;-77
2022/08/29 10:56:29;;;;;;;1.25;0.30;;;22.50;99.90;;;;;;5015354;28;20025;-77
2022/08/29 10:59:25;;;;;;;1.30;0.30;;;22.80;99.90;;;;;;5019224;28;20033;-77
2022/08/29 11:02:23;;;;;;;0.85;0.20;;;23.00;99.90;;;;;;5016208;28;20646;-76
2022/08/29 11:04:53;;;;;;;1.60;0.40;;;22.70;99.90;;;;;;5017768;28;20048;-78
2022/08/29 11:07:28;;;;;;;1.33;0.30;;;22.70;99.90;;;;;;5003261;28;20057;-78
2022/08/29 11:10:29;;;;;;;1.83;0.30;;;22.40;99.90;;;;;;5016041;28;20056;-77
2022/08/29 11:13:04;;;;;;;1.50;0.30;;;22.80;99.90;;;;;;5008922;28;20043;-77
2022/08/29 11:15:58;;;;;;;2.22;0.30;;;22.80;99.90;;;;;;5018225;28;20052;-78
2022/08/29 11:18:47;;;;;;;3.00;0.30;;;23.40;99.90;;;;;;4981987;28;20060;-80
2022/08/29 11:21:54;;;;;;;2.03;0.30;;;23.40;99.90;;;;;;5017046;28;20073;-79
2022/08/29 11:24:25;;;;;;;2.50;0.30;;;22.70;99.90;;;;;;4903242;29;20244;-77
2022/08/29 11:27:09;;;;;;;1.83;0.30;;;22.60;99.90;;;;;;4934457;28;20054;-77
2022/08/29 11:30:01;;;;;;;0.80;0.20;;;22.90;99.90;;;;;;4932557;28;20036;-76
2022/08/29 11:32:39;;;;;;;1.50;0.30;;;23.00;99.90;;;;;;4921066;28;20077;-76
2022/08/29 11:35:10;;;;;;;1.35;0.30;;;23.20;99.90;;;;;;4935370;28;20516;-78
2022/08/29 11:37:57;;;;;;;2.22;0.30;;;23.40;99.90;;;;;;4934679;28;20032;-78
2022/08/29 11:40:44;;;;;;;1.25;0.30;;;23.50;99.90;;;;;;4934814;28;20055;-75
2022/08/29 11:43:14;;;;;;;0.93;0.30;;;23.50;99.90;;;;;;4935645;28;20072;-80
2022/08/29 11:45:42;;;;;;;1.10;0.30;;;23.30;99.90;;;;;;4918910;29;20028;-81
2022/08/29 11:48:27;;;;;;;3.35;0.57;;;23.70;99.90;;;;;;4900255;29;20083;-79
2022/08/29 11:50:52;;;;;;;1.80;0.32;;;23.90;99.90;;;;;;4917505;29;20028;-76
2022/08/29 11:53:36;;;;;;;1.52;0.40;;;24.00;99.90;;;;;;4902816;29;20039;-76
2022/08/29 11:56:14;;;;;;;1.35;0.30;;;24.00;99.90;;;;;;4933622;29;20038;-78
2022/08/29 11:58:44;;;;;;;1.85;0.30;;;24.30;99.90;;;;;;4934468;28;20119;-76
2022/08/29 12:01:31;;;;;;;0.77;0.20;;;23.70;99.90;;;;;;4993136;28;20045;-77
2022/08/29 12:03:58;;;;;;;1.90;0.30;;;24.00;99.90;;;;;;5032858;28;20116;-76
2022/08/29 12:06:56;;;;;;;1.70;0.30;;;24.60;99.90;;;;;;4999210;28;20034;-82
2022/08/29 12:09:32;;;;;;;0.90;0.20;;;24.90;99.90;;;;;;4984014;28;20116;-76
2022/08/29 12:11:57;;;;;;;0.60;0.20;;;25.00;99.90;;;;;;5016016;28;20083;-78
2022/08/29 12:14:35;;;;;;;0.88;0.20;;;24.90;99.90;;;;;;4984389;28;20025;-78
2022/08/29 12:17:04;;;;;;;0.90;0.30;;;25.10;99.90;;;;;;5032454;28;20040;-82
2022/08/29 12:19:52;;;;;;;1.90;0.40;;;25.00;99.90;;;;;;5031865;28;20359;-78
2022/08/29 12:23:13;;;;;;;0.90;0.20;;;25.60;99.90;;;;;;5019050;28;20451;-77
2022/08/29 12:25:48;;;;;;;1.15;0.40;;;25.30;99.90;;;;;;4897614;29;20288;-77
2022/08/29 12:28:31;;;;;;;2.28;0.30;;;24.80;99.90;;;;;;4907438;29;20101;-77
2022/08/29 12:30:57;;;;;;;1.90;0.30;;;24.20;99.90;;;;;;4940355;29;20524;-77
2022/08/29 12:33:53;;;;;;;1.67;0.30;;;23.90;99.90;;;;;;4938996;28;20069;-76
2022/08/29 12:36:37;;;;;;;1.10;0.30;;;23.80;99.90;;;;;;4940840;29;20071;-78
2022/08/29 12:39:18;;;;;;;1.20;0.30;;;23.30;99.90;;;;;;4923890;29;20400;-76
2022/08/29 12:42:07;;;;;;;1.67;0.30;;;23.30;99.90;;;;;;4925150;29;20114;-77
2022/08/29 12:44:40;;;;;;;1.00;0.20;;;23.60;99.90;;;;;;4940548;29;20544;-78
2022/08/29 12:47:20;;;;;;;1.60;0.30;;;24.20;99.90;;;;;;4924556;29;20055;-77
2022/08/29 12:49:54;;;;;;;1.10;0.30;;;24.40;99.90;;;;;;4925340;29;20405;-77
2022/08/29 12:52:30;;;;;;;0.98;0.30;;;24.70;99.90;;;;;;4924407;29;20044;-76
2022/08/29 12:54:58;;;;;;;1.20;0.30;;;24.60;99.90;;;;;;4940240;28;20167;-78
2022/08/29 12:57:35;;;;;;;1.02;0.22;;;24.30;99.90;;;;;;4909570;29;20531;-77
2022/08/29 13:00:09;;;;;;;2.08;0.28;;;23.80;99.90;;;;;;5011077;28;20037;-80
2022/08/29 13:02:36;;;;;;;2.63;0.30;;;23.80;99.90;;;;;;5018259;28;20044;-78
2022/08/29 13:05:21;;;;;;;1.10;0.20;;;23.70;99.90;;;;;;5013537;28;20086;-77
2022/08/29 13:08:06;;;;;;;0.95;0.28;;;24.10;99.90;;;;;;4994966;28;20071;-77
2022/08/29 13:10:34;;;;;;;1.05;0.20;;;24.20;99.90;;;;;;5032119;28;20599;-76
2022/08/29 13:13:09;;;;;;;0.82;0.20;;;24.10;99.90;;;;;;5015319;28;20350;-79